Ludington, MI

5:37 AM EST on December 10, 2019 (GMT -0500)
Mason County

Weather History for KLDM - May, 2019

Change the Weather History Date:

Wednesday, May 29, 2019

  Actual Average Record
Temperature  
Mean Temperature 58 °F -  
Max Temperature 65 °F 71 °F 91 °F (2018)
Min Temperature 52 °F 47 °F 30 °F (2008)
Degree Days  
Heating Degree Days 6    
Growing Degree Days 8 (Base 50)    
Moisture  
Dew Point 54 °F    
Average Humidity 86    
Maximum Humidity 97    
Minimum Humidity 66    
Precipitation  
Precipitation 0.00 in - - ()
Sea Level Pressure  
Sea Level Pressure 29.76 in    
Wind  
Wind Speed 2 mph (West)    
Max Wind Speed 10 mph    
Max Gust Speed -    
Visibility 10 miles    
Events      
Averages and records for this station are not official NWS values.
T = Trace of Precipitation, MM = Missing Value Source: NWS Daily Summary

Daily Weather History Graph

Daily Weather History Graph

Search for Another Location

Airport or City:

Astronomy

May. 29, 2019 Rise Set
Actual Time 6:07 AM EDT 9:18 PM EDT
Civil Twilight 5:32 AM EDT 9:53 PM EDT
Nautical Twilight 4:47 AM EDT 10:39 PM EDT
Astronomical Twilight 3:53 AM EDT 11:34 PM EDT
Moon 3:59 AM EDT (5/29) 4:13 PM EDT (5/29)
Length of Visible Light 16h 21m
Length of Day
15h 10m
Waning Crescent, 23% of the Moon is Illuminated
May 29
Waning Crescent
Jun 3
New
Jun 10
First Quarter
Jun 17
Full
Jun 25
Last Quarter

Hourly Weather History & Observations

Time (EDT) Temp. Dew Point Humidity Pressure Visibility Wind Dir Wind Speed Gust Speed Precip Events Conditions
12:15 AM 55.0 °F 53.1 °F 93% 29.77 in 10.0 mi Calm Calm - N/A   Overcast
12:16 AM 55.0 °F 53.1 °F 93% 29.77 in 10.0 mi Calm Calm - N/A   Overcast
12:35 AM 55.4 °F 53.2 °F 92% 29.77 in 10.0 mi Calm Calm - N/A   Overcast
12:36 AM 55.4 °F 53.2 °F 92% 29.77 in 10.0 mi Calm Calm - N/A   Overcast
12:55 AM 55.4 °F 53.2 °F 92% 29.78 in 10.0 mi Calm Calm - N/A   Overcast
1:15 AM 55.6 °F 53.6 °F 93% 29.77 in 10.0 mi Calm Calm - N/A   Overcast
1:35 AM 55.0 °F 53.6 °F 95% 29.75 in 10.0 mi Calm Calm - N/A   Overcast
1:36 AM 55.0 °F 53.6 °F 95% 29.75 in 10.0 mi Calm Calm - N/A   Overcast
1:55 AM 55.4 °F 54.0 °F 95% 29.78 in 10.0 mi Calm Calm - N/A   Overcast
1:56 AM 55.4 °F 54.0 °F 95% 29.79 in 10.0 mi SW 3.5 mph - N/A   Overcast
2:15 AM 57.0 °F 54.9 °F 92% 29.79 in 10.0 mi Calm Calm - N/A   Overcast
2:35 AM 55.8 °F 54.3 °F 95% 29.78 in 10.0 mi Calm Calm - N/A   Overcast
2:55 AM 55.4 °F 54.3 °F 96% 29.75 in 10.0 mi East 4.6 mph - N/A   Overcast
3:15 AM 55.9 °F 54.7 °F 96% 29.72 in 10.0 mi Calm Calm - N/A   Mostly Cloudy
3:35 AM 55.4 °F 54.0 °F 95% 29.74 in 10.0 mi Calm Calm - N/A   Mostly Cloudy
3:36 AM 55.4 °F 54.1 °F 96% 29.74 in 10.0 mi Calm Calm - N/A   Mostly Cloudy
3:55 AM 55.6 °F 54.5 °F 96% 29.74 in 10.0 mi Calm Calm - N/A   Overcast
3:56 AM 55.6 °F 54.5 °F 96% 29.74 in 10.0 mi Calm Calm - N/A   Overcast
4:15 AM 55.0 °F 54.1 °F 97% 29.74 in 10.0 mi Calm Calm - N/A   Overcast
4:35 AM 54.7 °F 54.0 °F 97% 29.73 in 10.0 mi Calm Calm - N/A   Overcast
4:55 AM 54.5 °F 53.8 °F 97% 29.73 in 10.0 mi Calm Calm - N/A   Overcast
5:15 AM 54.5 °F 53.8 °F 97% 29.74 in 10.0 mi Calm Calm - N/A   Overcast
5:16 AM 54.5 °F 53.8 °F 97% 29.74 in 10.0 mi Calm Calm - N/A   Overcast
5:35 AM 54.3 °F 53.6 °F 97% 29.74 in 10.0 mi Calm Calm - N/A   Overcast
5:36 AM 54.3 °F 53.6 °F 97% 29.74 in 10.0 mi Calm Calm - N/A   Overcast
5:55 AM 54.7 °F 54.0 °F 97% 29.75 in 10.0 mi Calm Calm - N/A   Overcast
6:15 AM 54.5 °F 53.8 °F 97% 29.75 in 7.0 mi Calm Calm - N/A   Overcast
6:35 AM 54.7 °F 54.0 °F 97% 29.76 in 10.0 mi Calm Calm - N/A   Overcast
6:55 AM 55.9 °F 54.7 °F 96% 29.75 in 10.0 mi SSE 3.5 mph - N/A   Overcast
6:56 AM 55.9 °F 54.5 °F 95% 29.75 in 10.0 mi SSE 3.5 mph - N/A   Overcast
7:15 AM 56.3 °F 54.5 °F 94% 29.75 in 10.0 mi Calm Calm - N/A   Overcast
7:16 AM 56.3 °F 54.5 °F 94% 29.75 in 10.0 mi Calm Calm - N/A   Overcast
7:35 AM 56.7 °F 54.7 °F 93% 29.74 in 10.0 mi Calm Calm - N/A   Overcast
7:55 AM 56.8 °F 54.5 °F 92% 29.74 in 10.0 mi ESE 4.6 mph - N/A   Mostly Cloudy
8:15 AM 57.4 °F 54.7 °F 91% 29.74 in 10.0 mi East 3.5 mph - N/A   Mostly Cloudy
8:35 AM 59.4 °F 54.3 °F 83% 29.72 in 10.0 mi ESE 6.9 mph - N/A   Scattered Clouds
8:36 AM 59.4 °F 54.3 °F 83% 29.72 in 10.0 mi East 6.9 mph - N/A   Scattered Clouds
8:55 AM 60.1 °F 54.1 °F 81% 29.72 in 10.0 mi East 5.8 mph - N/A   Scattered Clouds
8:56 AM 60.1 °F 54.3 °F 81% 29.73 in 10.0 mi East 4.6 mph - N/A   Scattered Clouds
9:15 AM 60.4 °F 54.1 °F 80% 29.73 in 10.0 mi East 4.6 mph - N/A   Clear
9:16 AM 60.6 °F 54.1 °F 79% 29.73 in 10.0 mi East 4.6 mph - N/A   Clear
9:35 AM 61.0 °F 53.6 °F 77% 29.74 in 10.0 mi East 3.5 mph - N/A   Clear
9:36 AM 61.2 °F 53.8 °F 77% 29.74 in 10.0 mi Calm Calm - N/A   Clear
9:55 AM 61.9 °F 53.4 °F 74% 29.74 in 10.0 mi Calm Calm - N/A   Scattered Clouds
10:15 AM 63.5 °F 53.6 °F 70% 29.75 in 10.0 mi Calm Calm - N/A   Scattered Clouds
10:35 AM 62.1 °F 54.5 °F 76% 29.76 in 10.0 mi West 8.1 mph - N/A   Mostly Cloudy
10:55 AM 59.0 °F 53.8 °F 83% 29.77 in 10.0 mi West 4.6 mph - N/A   Overcast
11:15 AM 58.5 °F 53.4 °F 83% 29.78 in 10.0 mi WNW 3.5 mph - N/A   Overcast
11:16 AM 58.5 °F 53.6 °F 84% 29.78 in 10.0 mi Calm Calm - N/A   Overcast
11:35 AM 58.1 °F 53.2 °F 84% 29.78 in 10.0 mi NW 4.6 mph - N/A   Overcast
11:55 AM 59.0 °F 53.6 °F 82% 29.78 in 10.0 mi NW 4.6 mph - N/A   Overcast
12:15 PM 61.2 °F 54.1 °F 78% 29.79 in 10.0 mi WNW 5.8 mph - N/A   Overcast
12:35 PM 62.4 °F 54.7 °F 76% 29.78 in 10.0 mi WSW 6.9 mph - N/A   Mostly Cloudy
12:36 PM 62.4 °F 54.7 °F 76% 29.78 in 10.0 mi West 6.9 mph - N/A   Mostly Cloudy
12:55 PM 62.2 °F 54.7 °F 76% 29.78 in 10.0 mi West 4.6 mph - N/A   Scattered Clouds
1:15 PM 62.1 °F 54.5 °F 76% 29.78 in 10.0 mi West 8.1 mph - N/A   Clear
1:35 PM 62.8 °F 54.3 °F 74% 29.77 in 10.0 mi West 8.1 mph - N/A   Clear
1:55 PM 63.1 °F 55.0 °F 75% 29.77 in 10.0 mi West 8.1 mph - N/A   Clear
1:56 PM 63.3 °F 55.2 °F 75% 29.77 in 10.0 mi West 8.1 mph - N/A   Clear
2:15 PM 63.0 °F 55.2 °F 76% 29.77 in 10.0 mi WNW 6.9 mph - N/A   Clear
2:16 PM 63.1 °F 55.2 °F 75% 29.77 in 10.0 mi West 6.9 mph - N/A   Clear
2:35 PM 63.7 °F 55.2 °F 74% 29.77 in 10.0 mi NW 10.4 mph - N/A   Clear
2:55 PM 62.6 °F 55.0 °F 76% 29.77 in 10.0 mi WNW 8.1 mph - N/A   Mostly Cloudy
3:15 PM 62.1 °F 54.7 °F 77% 29.76 in 10.0 mi West 8.1 mph - N/A   Overcast
3:35 PM 64.0 °F 55.6 °F 74% 29.76 in 10.0 mi WNW 8.1 mph - N/A   Mostly Cloudy
3:36 PM 64.2 °F 55.6 °F 73% 29.77 in 10.0 mi WNW 8.1 mph - N/A   Mostly Cloudy
3:55 PM 64.8 °F 55.0 °F 71% 29.76 in 10.0 mi NW 8.1 mph - N/A   Clear
4:15 PM 65.1 °F 54.5 °F 68% 29.76 in 10.0 mi WNW 6.9 mph - N/A   Clear
4:35 PM 65.8 °F 54.3 °F 66% 29.76 in 10.0 mi West 6.9 mph - N/A   Clear
4:55 PM 64.4 °F 54.0 °F 69% 29.76 in 10.0 mi WSW 5.8 mph - N/A   Scattered Clouds
4:56 PM 64.4 °F 54.1 °F 69% 29.76 in 10.0 mi West 5.8 mph - N/A   Scattered Clouds
5:15 PM 65.3 °F 54.9 °F 69% 29.76 in 10.0 mi WSW 8.1 mph - N/A   Scattered Clouds
5:16 PM 65.3 °F 54.7 °F 68% 29.76 in 10.0 mi WSW 6.9 mph - N/A   Scattered Clouds
5:35 PM 64.2 °F 54.1 °F 70% 29.76 in 10.0 mi WSW 6.9 mph - N/A   Clear
5:36 PM 64.0 °F 54.1 °F 70% 29.76 in 10.0 mi West 6.9 mph - N/A   Clear
5:55 PM 63.3 °F 53.8 °F 71% 29.77 in 10.0 mi WSW 8.1 mph - N/A   Clear
6:15 PM 62.8 °F 54.0 °F 73% 29.77 in 10.0 mi WNW 6.9 mph - N/A   Clear
6:35 PM 62.4 °F 53.6 °F 73% 29.77 in 10.0 mi West 4.6 mph - N/A   Clear
6:36 PM 62.4 °F 53.8 °F 73% 29.77 in 10.0 mi West 4.6 mph - N/A   Clear
6:55 PM 60.4 °F 53.6 °F 78% 29.76 in 10.0 mi WSW 6.9 mph - N/A   Clear
6:56 PM 60.4 °F 53.8 °F 79% 29.75 in 10.0 mi WSW 6.9 mph - N/A   Clear
7:15 PM 57.2 °F 53.1 °F 86% 29.76 in 10.0 mi WSW 8.1 mph - N/A   Clear
7:16 PM 57.2 °F 53.1 °F 86% 29.76 in 10.0 mi WSW 8.1 mph - N/A   Clear
7:35 PM 54.5 °F 52.0 °F 91% 29.75 in 10.0 mi WSW 5.8 mph - N/A   Clear
7:55 PM 54.5 °F 52.0 °F 91% 29.75 in 10.0 mi WSW 3.5 mph - N/A   Clear
8:15 PM 54.9 °F 51.8 °F 89% 29.74 in 5.0 mi Calm Calm - N/A   Clear
8:35 PM 53.6 °F 51.3 °F 92% 29.74 in 7.0 mi WSW 3.5 mph - N/A   Clear
8:36 PM 53.6 °F 51.3 °F 92% 29.74 in 7.0 mi WSW 3.5 mph - N/A   Clear
8:55 PM 52.2 °F 50.9 °F 95% 29.75 in 10.0 mi Calm Calm - N/A   Clear
9:15 PM 52.7 °F 51.1 °F 94% 29.75 in 10.0 mi Calm Calm - N/A   Clear
9:35 PM 53.1 °F 51.4 °F 94% 29.76 in 10.0 mi Calm Calm - N/A   Clear
9:36 PM 53.1 °F 51.6 °F 95% 29.76 in 10.0 mi Calm Calm - N/A   Clear
9:55 PM 54.0 °F 51.8 °F 92% 29.75 in 10.0 mi Calm Calm - N/A   Clear
9:56 PM 54.0 °F 51.8 °F 92% 29.75 in 10.0 mi Calm Calm - N/A   Clear
10:15 PM 54.0 °F 51.4 °F 91% 29.75 in 10.0 mi WSW 8.1 mph - N/A   Clear
10:16 PM 54.0 °F 51.3 °F 91% 29.75 in 10.0 mi WSW 8.1 mph - N/A   Clear
10:35 PM 52.5 °F 50.9 °F 94% 29.76 in 10.0 mi WSW 5.8 mph - N/A   Clear
10:55 PM 52.9 °F 51.3 °F 94% 29.77 in 10.0 mi SW 4.6 mph - N/A   Clear
11:15 PM 53.8 °F 51.1 °F 91% 29.77 in 7.0 mi WSW 4.6 mph - N/A   Clear
11:16 PM 53.8 °F 51.1 °F 91% 29.77 in 7.0 mi WSW 4.6 mph - N/A   Clear
11:35 PM 53.8 °F 50.9 °F 90% 29.77 in 7.0 mi Calm Calm - N/A   Scattered Clouds
11:36 PM 53.8 °F 50.9 °F 90% 29.77 in 7.0 mi Calm Calm - N/A   Scattered Clouds
11:55 PM 52.5 °F 50.9 °F 94% 29.77 in 10.0 mi Calm Calm - N/A   Scattered Clouds